Time;durP1;ratioP1;P1;durP2;ratioP2;P2;SDS_P1;SDS_P2;PMS_P1;PMS_P2;Temp;Humidity;BMP_temperature;BMP_pressure;BME280_temperature;BME280_humidity;BME280_pressure;Samples;Min_cycle;Max_cycle;Signal;HPM_P1;HPM_P2
2023/03/13 05:12:31;;;;;;;;;;;;;;;12.14;60.90;96708.13;4231105;27;10386;-73
2023/03/13 05:14:34;;;;;;;;;;;;;;;12.42;60.12;96705.22;4231579;28;5666;-74
2023/03/13 05:16:37;;;;;;;;;;;;;;;12.65;59.91;96704.78;4231333;28;5665;-73
2023/03/13 05:18:40;;;;;;;;;;;;;;;12.83;59.81;96694.31;4231721;28;5670;-73
2023/03/13 05:20:43;;;;;;;;;;;;;;;12.96;59.23;96696.09;4231778;28;5672;-73
2023/03/13 05:22:46;;;;;;;;;;;;;;;13.06;59.08;96696.47;4229354;28;5735;-73
2023/03/13 05:24:49;;;;;;;;;;;;;;;13.17;59.15;96692.34;4231568;28;5816;-74
2023/03/13 05:26:52;;;;;;;;;;;;;;;13.24;58.73;96703.75;4231756;28;6411;-74
2023/03/13 05:28:56;;;;;;;;;;;;;;;13.31;58.63;96703.75;4227129;28;5697;-74
2023/03/13 05:30:59;;;;;;;;;;;;;;;13.35;58.48;96697.78;4231008;28;5658;-75
2023/03/13 05:33:02;;;;;;;;;;;;;;;13.39;58.26;96690.22;4230922;28;5669;-75
2023/03/13 05:35:06;;;;;;;;;;;;;;;13.42;58.22;96687.13;4222796;28;5769;-73
2023/03/13 05:37:08;;;;;;;;;;;;;;;13.45;58.20;96673.41;4225741;28;5758;-73
2023/03/13 05:39:11;;;;;;;;;;;;;;;13.49;58.08;96671.97;4225466;28;5694;-74
2023/03/13 05:41:14;;;;;;;;;;;;;;;13.54;58.17;96671.31;4229620;28;5670;-73
2023/03/13 05:43:17;;;;;;;;;;;;;;;13.58;58.22;96661.88;4231168;28;5768;-74
2023/03/13 05:45:21;;;;;;;;;;;;;;;13.60;57.82;96668.63;4231097;28;5909;-74
2023/03/13 05:47:24;;;;;;;;;;;;;;;13.63;57.74;96654.91;4231230;28;5802;-73
2023/03/13 05:49:28;;;;;;;;;;;;;;;13.63;57.89;96654.91;4231536;28;6663;-74
2023/03/13 05:51:32;;;;;;;;;;;;;;;13.68;57.83;96656.91;4223403;28;5764;-74
2023/03/13 05:53:34;;;;;;;;;;;;;;;13.69;57.58;96651.38;4230144;28;5677;-73
2023/03/13 05:55:37;;;;;;;;;;;;;;;13.72;57.78;96652.81;4230819;28;6071;-75
2023/03/13 05:57:45;;;;;;;;;;;;;;;13.73;57.29;96654.44;4226730;28;5097;-74
2023/03/13 05:59:48;;;;;;;;;;;;;;;13.74;57.24;96655.25;4228698;28;5666;-75
2023/03/13 06:01:52;;;;;;;;;;;;;;;13.76;57.25;96659.31;4222002;28;5765;-73
2023/03/13 06:03:55;;;;;;;;;;;;;;;13.76;57.21;96646.03;4223006;28;5657;-72
2023/03/13 06:05:58;;;;;;;;;;;;;;;13.78;56.93;96637.84;4224101;28;5794;-74
2023/03/13 06:08:02;;;;;;;;;;;;;;;13.78;56.92;96636.00;4227243;28;5666;-74
2023/03/13 06:10:05;;;;;;;;;;;;;;;13.80;56.76;96638.44;4228674;28;6470;-72
2023/03/13 06:12:09;;;;;;;;;;;;;;;13.80;56.96;96635.78;4221282;28;5665;-73
2023/03/13 06:14:13;;;;;;;;;;;;;;;13.81;56.58;96645.38;4215052;28;5838;-74
2023/03/13 06:16:16;;;;;;;;;;;;;;;13.81;56.70;96642.72;4203790;28;5681;-75
2023/03/13 06:18:20;;;;;;;;;;;;;;;13.83;56.47;96636.19;4218073;28;5705;-74
2023/03/13 06:20:23;;;;;;;;;;;;;;;13.85;56.33;96639.44;4213150;28;6172;-74
2023/03/13 06:22:26;;;;;;;;;;;;;;;13.86;56.22;96627.75;4206783;28;5806;-73
2023/03/13 06:24:29;;;;;;;;;;;;;;;13.88;56.09;96625.69;4211407;28;5677;-75
2023/03/13 06:26:32;;;;;;;;;;;;;;;13.89;56.38;96610.56;4219301;28;6371;-73
2023/03/13 06:28:35;;;;;;;;;;;;;;;13.89;56.21;96611.38;4217751;28;5648;-73
2023/03/13 06:30:38;;;;;;;;;;;;;;;13.91;55.97;96611.16;4219401;28;6738;-73
2023/03/13 06:32:41;;;;;;;;;;;;;;;13.92;56.14;96602.97;4218964;28;5862;-73
2023/03/13 06:34:45;;;;;;;;;;;;;;;13.95;55.93;96599.06;4215189;28;5706;-73
2023/03/13 06:36:48;;;;;;;;;;;;;;;13.96;55.79;96603.34;4213578;28;5737;-74
2023/03/13 06:38:51;;;;;;;;;;;;;;;13.97;55.68;96603.13;4211406;28;6663;-75
2023/03/13 06:40:54;;;;;;;;;;;;;;;13.98;55.75;96610.06;4205824;28;6545;-72
2023/03/13 06:42:57;;;;;;;;;;;;;;;13.99;55.65;96601.06;4213434;28;5619;-73
2023/03/13 06:45:02;;;;;;;;;;;;;;;14.03;55.63;96600.63;4202622;28;5686;-72
2023/03/13 06:47:05;;;;;;;;;;;;;;;14.05;55.36;96603.91;4215630;28;5677;-72
2023/03/13 06:49:08;;;;;;;;;;;;;;;14.06;55.37;96597.53;4219584;28;5785;-72
2023/03/13 06:51:13;;;;;;;;;;;;;;;14.07;55.25;96597.31;4219438;28;5685;-71
2023/03/13 06:53:17;;;;;;;;;;;;;;;14.07;55.25;96592.00;4219000;28;7022;-73
2023/03/13 06:55:20;;;;;;;;;;;;;;;14.09;55.29;96589.94;4219470;28;5866;-72
2023/03/13 06:57:23;;;;;;;;;;;;;;;14.10;55.18;96588.09;4219141;28;5760;-72
2023/03/13 06:59:26;;;;;;;;;;;;;;;14.12;54.91;96588.69;4218869;28;5748;-72
2023/03/13 07:01:29;;;;;;;;;;;;;;;14.13;55.13;96590.28;4208553;28;5710;-72
2023/03/13 07:03:32;;;;;;;;;;;;;;;14.13;54.78;96591.09;4213570;28;5858;-72
2023/03/13 07:05:35;;;;;;;;;;;;;;;14.15;55.01;96588.22;4212042;28;5212;-72
2023/03/13 07:07:40;;;;;;;;;;;;;;;14.16;54.78;96574.75;4213125;28;5688;-73
2023/03/13 07:09:43;;;;;;;;;;;;;;;14.19;54.69;96578.78;4216845;28;5779;-73
2023/03/13 07:11:46;;;;;;;;;;;;;;;14.20;54.51;96575.09;4218128;28;5757;-73
2023/03/13 07:13:49;;;;;;;;;;;;;;;14.20;54.58;96581.22;4218157;28;5665;-72
2023/03/13 07:15:52;;;;;;;;;;;;;;;14.21;54.55;96588.16;4217397;28;5666;-73
2023/03/13 07:17:57;;;;;;;;;;;;;;;14.22;54.31;96584.47;4217564;28;5681;-73
2023/03/13 07:20:03;;;;;;;;;;;;;;;14.26;54.46;96579.53;4217024;28;5692;-72
2023/03/13 07:22:06;;;;;;;;;;;;;;;14.26;54.36;96590.97;4218597;28;5676;-72
2023/03/13 07:24:10;;;;;;;;;;;;;;;14.28;54.36;96582.78;4216750;28;5769;-73
2023/03/13 07:26:14;;;;;;;;;;;;;;;14.30;54.05;96577.25;4218329;28;5764;-73
2023/03/13 07:28:17;;;;;;;;;;;;;;;14.33;53.86;96564.31;4217577;28;5768;-72
2023/03/13 07:30:21;;;;;;;;;;;;;;;14.33;53.92;96574.94;4216842;28;5105;-72
2023/03/13 07:32:24;;;;;;;;;;;;;;;14.32;53.94;96578.66;4201407;28;5800;-72
2023/03/13 07:34:28;;;;;;;;;;;;;;;14.36;53.88;96565.72;4209210;28;5677;-73
2023/03/13 07:36:30;;;;;;;;;;;;;;;14.39;53.61;96558.13;4215744;28;5744;-72
2023/03/13 07:38:34;;;;;;;;;;;;;;;14.43;53.51;96558.47;4210755;28;6729;-73
2023/03/13 07:40:38;;;;;;;;;;;;;;;14.45;53.37;96565.22;4213694;28;6437;-72
2023/03/13 07:42:41;;;;;;;;;;;;;;;14.48;53.58;96570.09;4214712;28;5834;-72
2023/03/13 07:44:44;;;;;;;;;;;;;;;14.52;53.35;96568.63;4204207;28;5669;-73
2023/03/13 07:46:49;;;;;;;;;;;;;;;14.54;53.21;96566.56;4214059;28;5894;-72
2023/03/13 07:48:54;;;;;;;;;;;;;;;14.52;53.04;96552.66;4215383;28;5676;-72
2023/03/13 07:51:02;;;;;;;;;;;;;;;14.51;53.31;96544.91;4217192;28;5895;-73
2023/03/13 07:53:05;;;;;;;;;;;;;;;14.54;52.93;96549.78;4204282;28;5781;-72
2023/03/13 07:55:09;;;;;;;;;;;;;;;14.56;53.13;96545.84;4210853;28;5748;-74
2023/03/13 07:57:16;;;;;;;;;;;;;;;14.53;53.03;96546.31;4216213;28;5662;-72
2023/03/13 07:59:19;;;;;;;;;;;;;;;14.46;52.99;96540.25;4217387;28;5757;-73
2023/03/13 08:01:24;;;;;;;;;;;;;;;14.41;53.06;96539.28;4217741;28;5693;-72
2023/03/13 08:03:31;;;;;;;;;;;;;;;14.40;52.89;96529.69;4209361;28;5765;-72
2023/03/13 08:05:34;;;;;;;;;;;;;;;14.40;53.00;96524.34;4210135;28;5685;-72
2023/03/13 08:07:37;;;;;;;;;;;;;;;14.37;52.83;96522.94;4212872;28;5839;-72
2023/03/13 08:09:42;;;;;;;;;;;;;;;14.42;52.85;96520.44;4202931;28;5716;-72
2023/03/13 08:11:45;;;;;;;;;;;;;;;14.46;52.61;96515.50;4216272;28;5674;-72
2023/03/13 08:13:53;;;;;;;;;;;;;;;14.50;52.55;96516.69;4216512;28;5735;-72
2023/03/13 08:16:03;;;;;;;;;;;;;;;14.57;52.45;96528.03;4215515;28;5831;-72
2023/03/13 08:18:07;;;;;;;;;;;;;;;14.62;52.52;96532.72;4216180;28;5803;-72
2023/03/13 08:20:12;;;;;;;;;;;;;;;14.66;52.34;96536.53;4207198;28;5775;-72
2023/03/13 08:22:15;;;;;;;;;;;;;;;14.68;52.18;96539.78;4216518;28;5783;-74
2023/03/13 08:24:18;;;;;;;;;;;;;;;14.69;52.44;96534.22;4204660;28;5698;-73
2023/03/13 08:26:23;;;;;;;;;;;;;;;14.71;52.29;96528.69;4208989;28;5714;-73
2023/03/13 08:28:26;;;;;;;;;;;;;;;14.73;52.07;96526.63;4216076;28;5681;-72
2023/03/13 08:30:31;;;;;;;;;;;;;;;14.76;51.90;96523.50;4208484;28;5678;-73
2023/03/13 08:32:34;;;;;;;;;;;;;;;14.73;52.02;96519.44;4215971;28;5865;-74
2023/03/13 08:34:38;;;;;;;;;;;;;;;14.75;51.80;96525.34;4214472;28;5724;-73
2023/03/13 08:36:44;;;;;;;;;;;;;;;14.78;51.86;96524.91;4217440;28;5858;-73
2023/03/13 08:38:47;;;;;;;;;;;;;;;14.80;51.75;96514.84;4216372;28;5896;-73
2023/03/13 08:40:56;;;;;;;;;;;;;;;14.84;51.92;96516.03;4214653;28;5672;-73
2023/03/13 08:42:59;;;;;;;;;;;;;;;14.85;51.60;96519.50;4217302;28;5744;-63
2023/03/13 08:45:02;;;;;;;;;;;;;;;14.85;51.65;96514.16;4216740;28;5744;-63
2023/03/13 08:47:08;;;;;;;;;;;;;;;14.82;51.64;96512.75;4214798;28;5728;-63
2023/03/13 08:49:12;;;;;;;;;;;;;;;14.81;51.58;96511.13;4217285;28;5661;-63
2023/03/13 08:51:15;;;;;;;;;;;;;;;14.87;51.61;96500.63;4217199;28;5791;-63
2023/03/13 08:53:18;;;;;;;;;;;;;;;14.93;51.20;96478.41;4215188;28;5697;-70
2023/03/13 08:55:21;;;;;;;;;;;;;;;15.01;51.45;96462.94;4215029;28;5676;-69
2023/03/13 08:57:24;;;;;;;;;;;;;;;15.05;51.18;96455.28;4215781;28;5653;-70
2023/03/13 08:59:27;;;;;;;;;;;;;;;15.04;51.16;96466.97;4216269;28;5657;-70
2023/03/13 09:01:32;;;;;;;;;;;;;;;15.09;51.31;96467.13;4208721;28;5744;-70
2023/03/13 09:03:39;;;;;;;;;;;;;;;15.14;50.99;96467.22;4214582;28;5810;-70
2023/03/13 09:05:42;;;;;;;;;;;;;;;15.18;51.00;96471.06;4209934;28;5719;-70
2023/03/13 09:07:58;;;;;;;;;;;;;;;15.24;51.00;96458.69;4210913;28;5684;-72
2023/03/13 09:10:01;;;;;;;;;;;;;;;15.27;50.76;96455.56;4216375;28;5672;-71
2023/03/13 09:12:04;;;;;;;;;;;;;;;15.27;50.71;96451.03;4213828;28;6516;-69
2023/03/13 09:14:08;;;;;;;;;;;;;;;15.28;50.95;96449.19;4215740;28;5665;-69
2023/03/13 09:16:13;;;;;;;;;;;;;;;15.31;50.81;96456.72;4216754;28;5686;-70
2023/03/13 09:18:16;;;;;;;;;;;;;;;15.31;50.74;96448.75;4215489;28;5776;-69
2023/03/13 09:20:20;;;;;;;;;;;;;;;15.31;50.57;96452.22;4216742;28;5709;-70
2023/03/13 09:22:23;;;;;;;;;;;;;;;15.32;50.70;96440.50;4216141;28;5666;-70
2023/03/13 09:24:26;;;;;;;;;;;;;;;15.33;50.74;96431.47;4215499;28;5809;-70
2023/03/13 09:26:29;;;;;;;;;;;;;;;15.33;50.64;96436.00;4215203;28;5697;-70
2023/03/13 09:28:34;;;;;;;;;;;;;;;15.32;50.59;96424.53;4216665;28;5672;-70
2023/03/13 09:30:37;;;;;;;;;;;;;;;15.31;50.46;96422.91;4216716;28;5696;-70
2023/03/13 09:32:41;;;;;;;;;;;;;;;15.30;50.35;96425.81;4216336;28;5804;-69
2023/03/13 09:34:44;;;;;;;;;;;;;;;15.30;50.29;96425.81;4216531;28;5192;-69
2023/03/13 09:36:48;;;;;;;;;;;;;;;15.29;50.16;96424.16;4216264;28;5891;-70
2023/03/13 09:38:52;;;;;;;;;;;;;;;15.27;50.47;96418.25;4215744;28;5665;-69
2023/03/13 09:40:56;;;;;;;;;;;;;;;15.28;50.20;96414.56;4216613;28;5666;-70
2023/03/13 09:43:23;;;;;;;;;;;;;;;15.28;50.10;96412.69;4208837;28;6700;-70
2023/03/13 09:45:32;;;;;;;;;;;;;;;15.28;49.79;96412.69;4215750;28;6555;-69
2023/03/13 09:47:43;;;;;;;;;;;;;;;15.26;50.07;96414.00;4210297;28;5753;-70
2023/03/13 09:49:50;;;;;;;;;;;;;;;15.26;50.29;96408.66;4220127;28;5767;-70
2023/03/13 09:52:03;;;;;;;;;;;;;;;15.23;50.09;96406.47;4220458;28;5672;-70
2023/03/13 09:54:09;;;;;;;;;;;;;;;15.22;50.05;96412.84;4209212;28;5763;-70
2023/03/13 09:56:16;;;;;;;;;;;;;;;15.19;50.02;96397.34;4213911;28;5870;-70
2023/03/13 09:58:23;;;;;;;;;;;;;;;15.18;50.03;96393.06;4219501;28;5759;-70
2023/03/13 10:00:31;;;;;;;;;;;;;;;15.17;50.15;96389.56;4219303;28;5795;-70
2023/03/13 10:02:35;;;;;;;;;;;;;;;15.15;49.98;96378.31;4219257;28;5673;-71
2023/03/13 10:04:45;;;;;;;;;;;;;;;15.14;49.88;96369.53;4209511;28;5698;-71
2023/03/13 10:06:50;;;;;;;;;;;;;;;15.13;49.99;96375.91;4213988;28;5673;-70
2023/03/13 10:09:00;;;;;;;;;;;;;;;15.16;49.90;96382.59;4217116;28;5669;-71
2023/03/13 10:11:07;;;;;;;;;;;;;;;15.21;49.80;96380.06;4218745;28;5665;-71
2023/03/13 10:13:18;;;;;;;;;;;;;;;15.22;49.93;96376.38;4218827;28;5777;-71
2023/03/13 10:15:32;;;;;;;;;;;;;;;15.24;49.87;96374.28;4219607;28;5773;-70
2023/03/13 10:17:37;;;;;;;;;;;;;;;15.26;49.84;96374.84;4210713;28;5677;-71
2023/03/13 10:19:42;;;;;;;;;;;;;;;15.30;49.77;96367.22;4219706;28;5746;-71
2023/03/13 10:21:50;;;;;;;;;;;;;;;15.31;49.65;96358.19;4219806;28;5681;-71
2023/03/13 10:24:00;;;;;;;;;;;;;;;15.30;49.59;96346.72;4218452;28;5690;-71
2023/03/13 10:26:05;;;;;;;;;;;;;;;15.32;49.73;96349.16;4218336;28;5824;-71
2023/03/13 10:28:11;;;;;;;;;;;;;;;15.32;49.45;96343.84;4218130;28;5665;-71
2023/03/13 10:30:23;;;;;;;;;;;;;;;15.31;49.43;96342.22;4217906;28;5673;-70
2023/03/13 10:32:27;;;;;;;;;;;;;;;15.33;49.35;96345.44;4215420;28;6359;-71
2023/03/13 10:34:45;;;;;;;;;;;;;;;15.35;49.21;96340.69;4202228;28;5722;-71
2023/03/13 10:36:54;;;;;;;;;;;;;;;15.34;49.38;96334.56;4218079;28;5677;-70
2023/03/13 10:38:58;;;;;;;;;;;;;;;15.38;49.53;96329.56;4218384;28;5760;-70
2023/03/13 10:41:09;;;;;;;;;;;;;;;15.43;49.32;96329.69;4217732;28;5757;-70
2023/03/13 10:43:17;;;;;;;;;;;;;;;15.47;49.20;96317.50;4216869;28;5093;-70
2023/03/13 10:45:23;;;;;;;;;;;;;;;15.51;49.31;96310.66;4219413;28;6373;-70
2023/03/13 10:47:33;;;;;;;;;;;;;;;15.58;49.19;96307.88;4208947;28;5769;-71
2023/03/13 10:49:48;;;;;;;;;;;;;;;15.63;48.90;96292.84;4216446;28;5813;-70
2023/03/13 10:51:52;;;;;;;;;;;;;;;15.69;49.04;96291.06;4218938;28;5760;-71
2023/03/13 10:53:55;;;;;;;;;;;;;;;15.73;49.05;96287.69;4209666;28;5899;-70
2023/03/13 10:56:04;;;;;;;;;;;;;;;15.79;48.89;96277.94;4206833;28;5677;-71
2023/03/13 10:58:17;;;;;;;;;;;;;;;15.86;48.50;96278.63;4216783;28;5704;-71
2023/03/13 11:00:35;;;;;;;;;;;;;;;15.92;48.92;96266.16;4217479;28;5770;-71
2023/03/13 11:02:39;;;;;;;;;;;;;;;15.95;48.83;96253.16;4214273;28;5665;-71
2023/03/13 11:04:43;;;;;;;;;;;;;;;15.98;48.74;96258.03;4217768;28;5887;-71
2023/03/13 11:06:52;;;;;;;;;;;;;;;16.01;48.62;96254.06;4218379;28;5773;-71
2023/03/13 11:09:00;;;;;;;;;;;;;;;16.03;48.69;96254.63;4217020;28;5664;-71
2023/03/13 11:11:16;;;;;;;;;;;;;;;16.07;48.56;96250.44;4217545;28;6369;-70
2023/03/13 11:13:28;;;;;;;;;;;;;;;16.11;48.59;96254.25;4214529;28;6385;-70
2023/03/13 11:15:44;;;;;;;;;;;;;;;16.16;48.47;96250.84;4211770;28;5657;-70
2023/03/13 11:17:52;;;;;;;;;;;;;;;16.18;48.46;96246.06;4217824;28;6063;-69
2023/03/13 11:20:06;;;;;;;;;;;;;;;16.15;48.62;96243.91;4218553;28;5662;-70
2023/03/13 11:22:35;;;;;;;;;;;;;;;16.10;48.58;96244.63;4208997;28;5723;-70
2023/03/13 11:24:44;;;;;;;;;;;;;;;16.07;48.57;96239.75;4213699;28;5780;-70
2023/03/13 11:26:59;;;;;;;;;;;;;;;16.06;48.63;96246.16;4215647;28;6558;-70
2023/03/13 11:29:17;;;;;;;;;;;;;;;16.05;48.54;96241.88;4209912;28;5698;-70
2023/03/13 11:31:25;;;;;;;;;;;;;;;16.02;48.59;96237.84;4216373;28;5805;-71
2023/03/13 11:33:37;;;;;;;;;;;;;;;16.01;48.61;96238.06;4217500;28;5752;-70
2023/03/13 11:35:46;;;;;;;;;;;;;;;16.03;48.60;96233.31;4217570;28;5740;-69
2023/03/13 11:37:55;;;;;;;;;;;;;;;16.07;48.48;96238.97;4212726;28;5657;-68
2023/03/13 11:40:10;;;;;;;;;;;;;;;16.08;48.44;96233.38;4217452;28;5701;-70
2023/03/13 11:42:33;;;;;;;;;;;;;;;16.10;48.29;96222.50;4217491;28;5752;-70
2023/03/13 11:44:49;;;;;;;;;;;;;;;16.09;48.42;96219.03;4206601;28;5851;-70
2023/03/13 11:47:13;;;;;;;;;;;;;;;16.12;48.56;96220.41;4217896;28;5987;-70
2023/03/13 11:49:39;;;;;;;;;;;;;;;16.13;48.46;96224.69;4215481;28;5665;-70
2023/03/13 11:51:55;;;;;;;;;;;;;;;16.15;48.52;96218.03;4216483;28;5818;-70
2023/03/13 11:54:13;;;;;;;;;;;;;;;16.15;48.38;96215.38;4214396;28;5740;-70
2023/03/13 11:56:21;;;;;;;;;;;;;;;16.15;48.43;96210.03;4213618;28;5776;-72
2023/03/13 11:58:52;;;;;;;;;;;;;;;16.18;48.47;96204.22;4214789;28;6306;-71
2023/03/13 12:01:00;;;;;;;;;;;;;;;16.19;48.46;96184.50;4206520;28;5661;-70
2023/03/13 12:03:14;;;;;;;;;;;;;;;16.21;48.45;96185.09;4214323;28;5768;-71
2023/03/13 12:05:19;;;;;;;;;;;;;;;16.22;48.33;96173.38;4217996;28;6242;-71
2023/03/13 12:07:28;;;;;;;;;;;;;;;16.25;48.35;96164.88;4210761;28;5669;-71
2023/03/13 12:09:37;;;;;;;;;;;;;;;16.27;48.33;96154.75;4215193;28;5658;-72
2023/03/13 12:11:47;;;;;;;;;;;;;;;16.29;48.42;96147.31;4211022;28;5691;-72
2023/03/13 12:13:57;;;;;;;;;;;;;;;16.34;48.37;96138.59;4217107;28;5215;-70
2023/03/13 12:16:06;;;;;;;;;;;;;;;16.38;48.32;96133.56;4213499;28;6078;-71
2023/03/13 12:18:17;;;;;;;;;;;;;;;16.41;48.32;96122.41;4217005;28;5751;-72
2023/03/13 12:20:25;;;;;;;;;;;;;;;16.42;48.15;96108.84;4217436;28;5773;-72
2023/03/13 12:22:33;;;;;;;;;;;;;;;16.48;48.28;96107.84;4209572;28;5668;-72
2023/03/13 12:24:42;;;;;;;;;;;;;;;16.49;48.23;96097.97;4216852;28;5766;-71
2023/03/13 12:26:49;;;;;;;;;;;;;;;16.52;48.34;96094.81;4215332;28;5756;-72
2023/03/13 12:29:06;;;;;;;;;;;;;;;16.55;48.31;96087.13;4214949;28;5673;-71
2023/03/13 12:31:25;;;;;;;;;;;;;;;16.57;48.30;96076.22;4212879;28;5902;-72
2023/03/13 12:33:34;;;;;;;;;;;;;;;16.58;48.49;96069.81;4216585;28;5755;-71
2023/03/13 12:35:41;;;;;;;;;;;;;;;16.63;48.33;96066.38;4210724;28;5672;-72
2023/03/13 12:37:50;;;;;;;;;;;;;;;16.64;48.07;96068.81;4213369;28;5625;-72
2023/03/13 12:39:57;;;;;;;;;;;;;;;16.62;48.35;96051.44;4209180;28;5814;-72
2023/03/13 12:42:12;;;;;;;;;;;;;;;16.65;48.41;96062.44;4205684;28;5798;-72
2023/03/13 12:44:19;;;;;;;;;;;;;;;16.66;48.23;96047.22;4214676;28;5670;-71
2023/03/13 12:46:34;;;;;;;;;;;;;;;16.64;48.36;96035.97;4217367;28;5657;-72
2023/03/13 12:48:53;;;;;;;;;;;;;;;16.63;48.37;96029.84;4207044;28;5707;-72
2023/03/13 12:51:11;;;;;;;;;;;;;;;16.66;48.45;96013.34;4212469;28;6343;-71
2023/03/13 12:53:43;;;;;;;;;;;;;;;16.73;48.38;96007.81;4216740;28;5677;-72
2023/03/13 12:56:15;;;;;;;;;;;;;;;16.79;48.35;95990.81;4211504;28;5658;-72
2023/03/13 12:58:29;;;;;;;;;;;;;;;16.84;48.26;95982.84;4216122;28;5799;-71
2023/03/13 13:00:37;;;;;;;;;;;;;;;16.87;48.18;95969.00;4209696;28;5658;-71
2023/03/13 13:02:42;;;;;;;;;;;;;;;16.87;48.22;95955.66;4210448;28;5888;-70
2023/03/13 13:04:47;;;;;;;;;;;;;;;16.88;48.35;95951.94;4212359;28;5820;-77
2023/03/13 13:06:54;;;;;;;;;;;;;;;16.90;48.29;95949.03;4202172;28;5784;-74
2023/03/13 13:09:08;;;;;;;;;;;;;;;16.90;48.29;95943.69;4214688;28;5685;-69
2023/03/13 13:11:46;;;;;;;;;;;;;;;16.93;48.26;95953.84;4215648;28;5664;-72
2023/03/13 13:13:49;;;;;;;;;;;;;;;16.96;48.42;95938.13;4210296;28;5658;-70
2023/03/13 13:16:02;;;;;;;;;;;;;;;16.99;48.39;95944.81;4215798;28;5689;-70
2023/03/13 13:18:16;;;;;;;;;;;;;;;17.00;48.24;95922.41;4215322;28;5672;-67
2023/03/13 13:20:46;;;;;;;;;;;;;;;17.03;48.41;95927.22;4213427;28;5690;-71
2023/03/13 13:22:50;;;;;;;;;;;;;;;17.01;48.25;95918.69;4211432;28;5666;-71
2023/03/13 13:24:56;;;;;;;;;;;;;;;17.03;48.37;95916.56;4215376;28;5660;-69
2023/03/13 13:26:59;;;;;;;;;;;;;;;17.07;48.26;95904.28;4220192;28;6108;-74
2023/03/13 13:29:55;;;;;;;;;;;;;;;17.10;48.21;95909.94;4220976;28;6503;-73
2023/03/13 13:32:01;;;;;;;;;;;;;;;17.10;48.30;95901.09;4216350;28;5903;-76
2023/03/13 13:34:07;;;;;;;;;;;;;;;17.08;48.37;95893.34;4217204;28;5689;-75
2023/03/13 13:36:41;;;;;;;;;;;;;;;17.07;48.39;95896.28;4219786;28;5661;-76
2023/03/13 13:38:44;;;;;;;;;;;;;;;17.04;48.57;95896.81;4215769;28;5670;-76
2023/03/13 13:40:59;;;;;;;;;;;;;;;17.05;48.46;95885.06;4217726;28;5907;-75
2023/03/13 13:43:07;;;;;;;;;;;;;;;17.07;48.35;95877.59;4211179;28;6552;-75
2023/03/13 13:45:31;;;;;;;;;;;;;;;17.08;48.34;95874.66;4214184;28;5838;-75
2023/03/13 13:47:36;;;;;;;;;;;;;;;17.09;48.33;95862.91;4216041;28;5673;-75
2023/03/13 13:49:54;;;;;;;;;;;;;;;17.09;48.40;95854.91;4220720;28;5864;-75
2023/03/13 13:52:37;;;;;;;;;;;;;;;17.18;48.26;95855.25;4213058;28;5688;-75
2023/03/13 13:54:54;;;;;;;;;;;;;;;17.21;48.19;95849.38;4215251;28;5673;-76
2023/03/13 13:56:59;;;;;;;;;;;;;;;17.22;48.18;95834.97;4207367;28;5753;-75
2023/03/13 13:59:23;;;;;;;;;;;;;;;17.20;48.17;95825.59;4218482;28;5669;-76
2023/03/13 14:01:26;;;;;;;;;;;;;;;17.18;48.18;95824.00;4212532;28;5800;-75
2023/03/13 14:03:35;;;;;;;;;;;;;;;17.16;48.36;95831.47;4209208;28;5785;-77
2023/03/13 14:05:41;;;;;;;;;;;;;;;17.15;48.34;95819.16;4209624;28;5879;-75
2023/03/13 14:07:54;;;;;;;;;;;;;;;17.16;48.24;95814.63;4206018;28;5889;-75
2023/03/13 14:10:06;;;;;;;;;;;;;;;17.15;48.28;95818.38;4210629;28;5793;-76
2023/03/13 14:12:27;;;;;;;;;;;;;;;17.14;48.26;95814.91;4212980;28;5121;-76
2023/03/13 14:14:30;;;;;;;;;;;;;;;17.15;48.31;95791.66;4209352;28;7719;-75
2023/03/13 14:16:33;;;;;;;;;;;;;;;17.16;48.24;95796.75;4217100;28;6486;-76
2023/03/13 14:18:42;;;;;;;;;;;;;;;17.16;48.46;95803.94;4218101;28;5660;-76
2023/03/13 14:20:54;;;;;;;;;;;;;;;17.19;48.37;95787.41;4209182;28;5753;-75
2023/03/13 14:23:02;;;;;;;;;;;;;;;17.26;48.57;95774.63;4217867;28;5764;-75
2023/03/13 14:25:06;;;;;;;;;;;;;;;17.28;48.29;95764.50;4211012;28;5673;-75
2023/03/13 14:27:15;;;;;;;;;;;;;;;17.31;48.26;95758.63;4213200;28;5685;-75
2023/03/13 14:29:24;;;;;;;;;;;;;;;17.34;48.00;95752.78;4214099;28;5688;-75
2023/03/13 14:31:29;;;;;;;;;;;;;;;17.34;48.16;95752.78;4208111;28;5781;-75
2023/03/13 14:33:34;;;;;;;;;;;;;;;17.35;48.13;95732.22;4213668;28;5842;-75
2023/03/13 14:35:42;;;;;;;;;;;;;;;17.39;48.05;95727.94;4205501;28;5833;-75
2023/03/13 14:37:47;;;;;;;;;;;;;;;17.41;48.09;95725.81;4209356;28;5836;-76
2023/03/13 14:39:50;;;;;;;;;;;;;;;17.39;48.12;95723.41;4215219;28;5818;-76
2023/03/13 14:41:53;;;;;;;;;;;;;;;17.41;48.10;95709.78;4213687;28;5403;-76
2023/03/13 14:44:03;;;;;;;;;;;;;;;17.46;47.99;95701.78;4208201;28;7719;-75
2023/03/13 14:46:14;;;;;;;;;;;;;;;17.47;47.99;95690.03;4210313;28;5915;-75
2023/03/13 14:48:21;;;;;;;;;;;;;;;17.51;47.88;95684.97;4205077;28;6472;-75
2023/03/13 14:50:25;;;;;;;;;;;;;;;17.53;47.82;95669.47;4208418;28;5804;-75
2023/03/13 14:52:31;;;;;;;;;;;;;;;17.53;47.87;95664.91;4209700;28;5874;-75
2023/03/13 14:54:36;;;;;;;;;;;;;;;17.53;47.78;95672.13;4206676;28;5869;-76
2023/03/13 14:56:41;;;;;;;;;;;;;;;17.51;47.74;95661.72;4212941;28;5811;-75
2023/03/13 14:58:44;;;;;;;;;;;;;;;17.52;47.80;95655.28;4213865;28;6588;-76
2023/03/13 15:00:48;;;;;;;;;;;;;;;17.56;47.80;95645.72;4210897;28;6629;-76
2023/03/13 15:02:51;;;;;;;;;;;;;;;17.64;47.58;95644.34;4211367;28;5927;-76
2023/03/13 15:05:00;;;;;;;;;;;;;;;17.60;47.72;95627.25;4206053;28;5701;-77
2023/03/13 15:07:03;;;;;;;;;;;;;;;17.61;47.69;95626.19;4215395;28;5702;-76
2023/03/13 15:09:22;;;;;;;;;;;;;;;17.62;47.62;95604.53;4216840;28;5684;-76
2023/03/13 15:11:28;;;;;;;;;;;;;;;17.62;47.62;95599.19;4217905;28;6283;-76
2023/03/13 15:13:38;;;;;;;;;;;;;;;17.67;47.64;95588.53;4213778;28;5840;-76
2023/03/13 15:15:41;;;;;;;;;;;;;;;17.70;47.44;95589.88;4224088;28;5804;-76
2023/03/13 15:17:44;;;;;;;;;;;;;;;17.73;47.55;95584.00;4211979;28;5785;-73
2023/03/13 15:19:52;;;;;;;;;;;;;;;17.80;47.65;95579.19;4210366;28;5805;-74
2023/03/13 15:21:55;;;;;;;;;;;;;;;17.85;47.38;95573.84;4216129;28;5717;-75
2023/03/13 15:24:01;;;;;;;;;;;;;;;17.81;47.32;95564.75;4213360;28;5665;-74
2023/03/13 15:26:06;;;;;;;;;;;;;;;17.78;47.48;95559.97;4218329;28;5677;-75
2023/03/13 15:28:15;;;;;;;;;;;;;;;17.80;47.37;95546.31;4214477;28;5668;-74
2023/03/13 15:30:22;;;;;;;;;;;;;;;17.81;47.35;95543.38;4214285;28;5698;-74
2023/03/13 15:32:27;;;;;;;;;;;;;;;17.81;47.41;95527.34;4215534;28;5789;-74
2023/03/13 15:34:32;;;;;;;;;;;;;;;17.81;47.31;95530.00;4211461;28;6396;-74
2023/03/13 15:36:35;;;;;;;;;;;;;;;17.79;47.34;95516.13;4216345;28;5709;-74
2023/03/13 15:38:39;;;;;;;;;;;;;;;17.74;47.58;95511.56;4219891;28;5677;-74
2023/03/13 15:40:42;;;;;;;;;;;;;;;17.76;47.41;95500.59;4218742;28;5665;-74
2023/03/13 15:42:47;;;;;;;;;;;;;;;17.76;47.28;95500.59;4210937;28;5678;-74
2023/03/13 15:44:49;;;;;;;;;;;;;;;17.73;47.17;95493.94;4217758;28;5755;-75
2023/03/13 15:46:53;;;;;;;;;;;;;;;17.73;46.94;95490.44;4215405;28;5697;-74
2023/03/13 15:48:56;;;;;;;;;;;;;;;17.69;46.95;95473.38;4210027;28;8488;-74
2023/03/13 15:51:01;;;;;;;;;;;;;;;17.67;46.82;95473.59;4218207;28;5670;-75
2023/03/13 15:53:11;;;;;;;;;;;;;;;17.65;46.93;95464.22;4217291;28;5811;-75
2023/03/13 15:55:14;;;;;;;;;;;;;;;17.65;46.87;95464.22;4217573;28;5660;-75
2023/03/13 15:57:21;;;;;;;;;;;;;;;17.61;46.70;95466.66;4218638;28;6246;-74
2023/03/13 15:59:26;;;;;;;;;;;;;;;17.59;46.72;95471.47;4219573;28;5686;-74
2023/03/13 16:01:28;;;;;;;;;;;;;;;17.55;47.02;95449.00;4204975;28;5733;-74
2023/03/13 16:03:31;;;;;;;;;;;;;;;17.55;46.74;95451.69;4215617;28;5795;-75
2023/03/13 16:05:34;;;;;;;;;;;;;;;17.61;46.64;95439.13;4222151;28;5811;-73
2023/03/13 16:07:38;;;;;;;;;;;;;;;17.65;46.62;95438.31;4222173;28;5834;-75
2023/03/13 16:09:41;;;;;;;;;;;;;;;17.67;46.43;95436.19;4221886;28;5673;-75
2023/03/13 16:11:45;;;;;;;;;;;;;;;17.63;46.50;95436.97;4222604;28;5771;-74
2023/03/13 16:13:47;;;;;;;;;;;;;;;17.60;46.58;95434.84;4223296;28;5843;-74
2023/03/13 16:15:52;;;;;;;;;;;;;;;17.62;46.64;95427.38;4222769;28;5781;-75
2023/03/13 16:17:55;;;;;;;;;;;;;;;17.64;46.52;95422.53;4222515;28;5763;-75
2023/03/13 16:19:57;;;;;;;;;;;;;;;17.65;46.59;95432.16;4220750;28;5733;-75
2023/03/13 16:22:00;;;;;;;;;;;;;;;17.63;46.56;95431.63;4219836;28;5672;-74
2023/03/13 16:24:03;;;;;;;;;;;;;;;17.61;46.60;95425.78;4219700;28;5676;-75